地図

経路データ

SID SEASON NUMBER BASIN SUBBASIN NAME ISO_TIME NATURE LAT LON WMO_WIND WMO_PRES WMO_AGENCY TRACK_TYPE DIST2LAND LANDFALL IFLAG USA_AGENCY USA_ATCF_ID USA_LAT USA_LON USA_RECORD USA_STATUS USA_WIND USA_PRES USA_SSHS USA_R34_NE USA_R34_SE USA_R34_SW USA_R34_NW USA_R50_NE USA_R50_SE USA_R50_SW USA_R50_NW USA_R64_NE USA_R64_SE USA_R64_SW USA_R64_NW USA_POCI USA_ROCI USA_RMW USA_EYE TOKYO_LAT TOKYO_LON TOKYO_GRADE TOKYO_WIND TOKYO_PRES TOKYO_R50_DIR TOKYO_R50_LONG TOKYO_R50_SHORT TOKYO_R30_DIR TOKYO_R30_LONG TOKYO_R30_SHORT TOKYO_LAND CMA_LAT CMA_LON CMA_CAT CMA_WIND CMA_PRES HKO_LAT HKO_LON HKO_CAT HKO_WIND HKO_PRES NEWDELHI_LAT NEWDELHI_LON NEWDELHI_GRADE NEWDELHI_WIND NEWDELHI_PRES NEWDELHI_CI NEWDELHI_DP NEWDELHI_POCI REUNION_LAT REUNION_LON REUNION_TYPE REUNION_WIND REUNION_PRES REUNION_TNUM REUNION_CI REUNION_RMW REUNION_R34_NE REUNION_R34_SE REUNION_R34_SW REUNION_R34_NW REUNION_R50_NE REUNION_R50_SE REUNION_R50_SW REUNION_R50_NW REUNION_R64_NE REUNION_R64_SE REUNION_R64_SW REUNION_R64_NW BOM_LAT BOM_LON BOM_TYPE BOM_WIND BOM_PRES BOM_TNUM BOM_CI BOM_RMW BOM_R34_NE BOM_R34_SE BOM_R34_SW BOM_R34_NW BOM_R50_NE BOM_R50_SE BOM_R50_SW BOM_R50_NW BOM_R64_NE BOM_R64_SE BOM_R64_SW BOM_R64_NW BOM_ROCI BOM_POCI BOM_EYE BOM_POS_METHOD BOM_PRES_METHOD NADI_LAT NADI_LON NADI_CAT NADI_WIND NADI_PRES WELLINGTON_LAT WELLINGTON_LON WELLINGTON_WIND WELLINGTON_PRES DS824_LAT DS824_LON DS824_STAGE DS824_WIND DS824_PRES TD9636_LAT TD9636_LON TD9636_STAGE TD9636_WIND TD9636_PRES TD9635_LAT TD9635_LON TD9635_WIND TD9635_PRES TD9635_ROCI NEUMANN_LAT NEUMANN_LON NEUMANN_CLASS NEUMANN_WIND NEUMANN_PRES MLC_LAT MLC_LON MLC_CLASS MLC_WIND MLC_PRES USA_GUST BOM_GUST BOM_GUST_PER REUNION_GUST REUNION_GUST_PER USA_SEAHGT USA_SEARAD_NE USA_SEARAD_SE USA_SEARAD_SW USA_SEARAD_NW STORM_SPEED STORM_DIR
1973245N21274 1973 92 NA CS DELIA 1973-09-01 18:00:00 TS 20.5000 -86.5000 30 1008 hurdat_atl main 53 23 O_____________ hurdat_atl AL101973 20.5000 -86.5000 TD 30 1008 -1 9 340
1973245N21274 1973 92 NA CS DELIA 1973-09-01 21:00:00 TS 20.9200 -86.6573 main 15 0 P_____________ AL101973 20.9200 -86.6573 TD 30 -1 9 341
1973245N21274 1973 92 NA CS DELIA 1973-09-02 00:00:00 TS 21.3000 -86.8000 30 hurdat_atl main 0 0 O_____________ hurdat_atl AL101973 21.3000 -86.8000 TD 30 -1 7 341
1973245N21274 1973 92 NA CS DELIA 1973-09-02 03:00:00 TS 21.6150 -86.9151 main 15 15 P_____________ AL101973 21.6150 -86.9151 TD 30 -1 6 343
1973245N21274 1973 92 NA GM DELIA 1973-09-02 06:00:00 TS 21.9000 -87.0000 30 hurdat_atl main 44 44 O_____________ hurdat_atl AL101973 21.9000 -87.0000 TD 30 -1 6 348
1973245N21274 1973 92 NA GM DELIA 1973-09-02 09:00:00 TS 22.2000 -87.0427 main 78 78 P_____________ AL101973 22.2000 -87.0427 TD 30 -1 6 352
1973245N21274 1973 92 NA GM DELIA 1973-09-02 12:00:00 TS 22.5000 -87.1000 30 hurdat_atl main 111 111 O_____________ hurdat_atl AL101973 22.5000 -87.1000 TD 30 -1 6 345
1973245N21274 1973 92 NA GM DELIA 1973-09-02 15:00:00 TS 22.7774 -87.2128 main 145 145 P_____________ AL101973 22.7774 -87.2128 TD 30 -1 7 335
1973245N21274 1973 92 NA GM DELIA 1973-09-02 18:00:00 TS 23.1000 -87.4000 30 hurdat_atl main 181 181 O_____________ hurdat_atl AL101973 23.1000 -87.4000 TD 30 -1 9 331
1973245N21274 1973 92 NA GM DELIA 1973-09-02 21:00:00 TS 23.5199 -87.6552 main 223 223 P_____________ AL101973 23.5199 -87.6552 TD 35 0 11 329
1973245N21274 1973 92 NA GM DELIA 1973-09-03 00:00:00 TS 24.0000 -88.0000 40 1000 hurdat_atl main 279 279 O_____________ hurdat_atl AL101973 24.0000 -88.0000 TS 40 1000 0 12 324
1973245N21274 1973 92 NA GM DELIA 1973-09-03 03:00:00 TS 24.5000 -88.4200 main 335 335 P_____________ AL101973 24.5000 -88.4200 TS 45 999 0 13 321
1973245N21274 1973 92 NA GM DELIA 1973-09-03 06:00:00 TS 25.0000 -88.9000 50 hurdat_atl main 392 391 I_____________ hurdat_atl AL101973 25.0000 -88.9000 TS 50 998 0 13 318
1973245N21274 1973 92 NA GM DELIA 1973-09-03 09:00:00 TS 25.4798 -89.3851 main 391 352 P_____________ AL101973 25.4798 -89.3851 TS 55 997 0 13 315
1973245N21274 1973 92 NA GM DELIA 1973-09-03 12:00:00 TS 25.9000 -89.9000 60 997 hurdat_atl main 355 323 O_____________ hurdat_atl AL101973 25.9000 -89.9000 TS 60 997 0 12 309
1973245N21274 1973 92 NA GM DELIA 1973-09-03 15:00:00 TS 26.2296 -90.4206 main 324 290 P_____________ AL101973 26.2296 -90.4206 TS 60 995 0 12 301
1973245N21274 1973 92 NA GM DELIA 1973-09-03 18:00:00 TS 26.5000 -91.0000 60 994 hurdat_atl main 290 265 O_____________ hurdat_atl AL101973 26.5000 -91.0000 TS 60 994 0 13 296
1973245N21274 1973 92 NA GM DELIA 1973-09-03 21:00:00 TS 26.8032 -91.7369 main 268 264 P_____________ AL101973 26.8032 -91.7369 TS 60 0 13 292
1973245N21274 1973 92 NA GM DELIA 1973-09-04 00:00:00 TS 27.0000 -92.4000 60 hurdat_atl main 276 276 O_____________ hurdat_atl AL101973 27.0000 -92.4000 TS 60 0 10 278
1973245N21274 1973 92 NA GM DELIA 1973-09-04 03:00:00 TS 26.9420 -92.7983 main 294 294 P_____________ AL101973 26.9420 -92.7983 TS 60 0 5 259
1973245N21274 1973 92 NA GM DELIA 1973-09-04 06:00:00 TS 26.9000 -93.0000 60 hurdat_atl main 298 276 O_____________ hurdat_atl AL101973 26.9000 -93.0000 TS 60 0 3 312
1973245N21274 1973 92 NA GM DELIA 1973-09-04 09:00:00 TS 27.1247 -93.0282 main 276 236 P_____________ AL101973 27.1247 -93.0282 TS 60 0 6 352
1973245N21274 1973 92 NA GM DELIA 1973-09-04 12:00:00 TS 27.5000 -93.1000 60 993 hurdat_atl main 236 203 O_____________ hurdat_atl AL101973 27.5000 -93.1000 TS 60 993 0 9 334
1973245N21274 1973 92 NA GM DELIA 1973-09-04 15:00:00 TS 27.9503 -93.4893 main 192 133 P_____________ AL101973 27.9503 -93.4893 TS 60 989 0 12 319
1973245N21274 1973 92 NA GM DELIA 1973-09-04 18:00:00 TS 28.4000 -94.0000 60 986 hurdat_atl main 133 73 O_____________ hurdat_atl AL101973 28.4000 -94.0000 TS 60 986 0 12 314
1973245N21274 1973 92 NA GM DELIA 1973-09-04 21:00:00 TS 28.7748 -94.4499 main 73 29 P_____________ AL101973 28.7748 -94.4499 TS 57 0 10 307
1973245N21274 1973 92 NA GM DELIA 1973-09-05 00:00:00 TS 29.0000 -94.9000 55 hurdat_atl main 29 0 O_____________ hurdat_atl AL101973 29.0000 -94.9000 TS 55 0 9 289
1973245N21274 1973 92 NA NA DELIA 1973-09-05 03:00:00 TS 29.0552 -95.4029 main 0 0 P_____________ AL101973 29.0552 -95.4029 TS 52 0 8 263
1973245N21274 1973 92 NA NA DELIA 1973-09-05 06:00:00 TS 28.9000 -95.8000 50 hurdat_atl main 0 0 O_____________ hurdat_atl AL101973 28.9000 -95.8000 TS 50 0 8 224
1973245N21274 1973 92 NA GM DELIA 1973-09-05 09:00:00 TS 28.4997 -96.0052 main 11 11 P_____________ AL101973 28.4997 -96.0052 TS 47 0 8 193
1973245N21274 1973 92 NA GM DELIA 1973-09-05 12:00:00 TS 28.1000 -96.0000 45 988 hurdat_atl main 48 48 O_____________ hurdat_atl AL101973 28.1000 -96.0000 TS 45 988 0 5 159
1973245N21274 1973 92 NA GM DELIA 1973-09-05 15:00:00 TS 27.9902 -95.7874 main 68 68 P_____________ AL101973 27.9902 -95.7874 TS 42 0 5 103
1973245N21274 1973 92 NA GM DELIA 1973-09-05 18:00:00 TS 28.0000 -95.5000 40 hurdat_atl main 82 82 O_____________ hurdat_atl AL101973 28.0000 -95.5000 TS 40 0 5 99
1973245N21274 1973 92 NA GM DELIA 1973-09-05 21:00:00 TS 27.9174 -95.2828 main 103 101 P_____________ AL101973 27.9174 -95.2828 TS 42 0 3 90
1973245N21274 1973 92 NA GM DELIA 1973-09-06 00:00:00 TS 28.0000 -95.2000 45 hurdat_atl main 101 56 O_____________ hurdat_atl AL101973 28.0000 -95.2000 TS 45 0 5 357
1973245N21274 1973 92 NA GM DELIA 1973-09-06 03:00:00 TS 28.4399 -95.3248 main 56 0 P_____________ AL101973 28.4399 -95.3248 TS 42 0 11 341
1973245N21274 1973 92 NA NA DELIA 1973-09-06 06:00:00 TS 29.0000 -95.6000 40 hurdat_atl main 0 0 O_____________ hurdat_atl AL101973 29.0000 -95.6000 TS 40 0 11 335
1973245N21274 1973 92 NA NA DELIA 1973-09-06 09:00:00 TS 29.4365 -95.8456 main 0 0 P_____________ AL101973 29.4365 -95.8456 TS 37 0 10 323
1973245N21274 1973 92 NA NA DELIA 1973-09-06 12:00:00 TS 29.8000 -96.3000 35 hurdat_atl main 0 0 O_____________ hurdat_atl AL101973 29.8000 -96.3000 TS 35 0 13 302
1973245N21274 1973 92 NA NA DELIA 1973-09-06 15:00:00 TS 30.1177 -97.0940 main 0 0 P_____________ AL101973 30.1177 -97.0940 TS 32 -1 16 288
1973245N21274 1973 92 NA NA DELIA 1973-09-06 18:00:00 TS 30.3000 -98.1000 30 hurdat_atl main 0 0 O_____________ hurdat_atl AL101973 30.3000 -98.1000 TD 30 -1 18 278
1973245N21274 1973 92 NA NA DELIA 1973-09-06 21:00:00 TS 30.3631 -99.1721 main 0 0 P_____________ AL101973 30.3631 -99.1721 TD 30 -1 18 267
1973245N21274 1973 92 NA NA DELIA 1973-09-07 00:00:00 TS 30.2000 -100.200 30 hurdat_atl main 0 0 O_____________ hurdat_atl AL101973 30.2000 -100.200 TD 30 -1 17 250
1973245N21274 1973 92 NA NA DELIA 1973-09-07 03:00:00 TS 29.7748 -101.019 main 0 0 P_____________ AL101973 29.7748 -101.019 TD 30 -1 16 232
1973245N21274 1973 92 NA NA DELIA 1973-09-07 06:00:00 TS 29.2000 -101.700 30 hurdat_atl main 0 O_____________ hurdat_atl AL101973 29.2000 -101.700 TD 30 -1 17 226

IBTrACS Databaseについて

本データベースは、米国NOAAが公開する1842年以降の世界の熱帯低気圧のベストトラックデータアーカイブInternational Best Track Archive for Climate Stewardship (IBTrACS)を、ウェブで閲覧しやすい形式に変換したものです。

最終更新日:2021-12-03